Time;durP1;ratioP1;P1;durP2;ratioP2;P2;SDS_P1;SDS_P2;PMS_P1;PMS_P2;Temp;Humidity;BMP_temperature;BMP_pressure;BME280_temperature;BME280_humidity;BME280_pressure;Samples;Min_cycle;Max_cycle;Signal;HPM_P1;HPM_P2
2022/02/10 00:03:12;;;;;;;13.38;3.50;;;;;;;;;;4933985;29;20071;-66
2022/02/10 00:20:43;;;;;;;7.95;2.83;;;;;;;;;;4914664;29;20071;-66
2022/02/10 00:36:37;;;;;;;10.73;3.25;;;;;;;;;;4901773;29;20067;-66
2022/02/10 00:41:44;;;;;;;10.65;3.30;;;;;;;;;;4914809;29;20096;-66
2022/02/10 00:44:14;;;;;;;9.10;2.75;;;;;;;;;;4914344;29;20056;-66
2022/02/10 00:46:45;;;;;;;8.70;2.70;;;;;;;;;;4914123;29;20436;-66
2022/02/10 00:49:15;;;;;;;7.47;2.78;;;;;;;;;;4929176;29;20059;-66
2022/02/10 00:51:47;;;;;;;8.63;3.03;;;;;;;;;;4978324;28;20050;-66
2022/02/10 00:54:24;;;;;;;6.03;2.60;;;;;;;;;;4943172;28;20050;-66
2022/02/10 00:56:57;;;;;;;11.98;2.97;;;;;;;;;;4932967;29;20051;-66
2022/02/10 01:10:32;;;;;;;11.32;2.75;;;;;;;;;;4932949;29;20063;-66
2022/02/10 01:30:03;;;;;;;11.32;3.13;;;;;;;;;;4876226;29;20065;-66
2022/02/10 01:32:34;;;;;;;13.00;3.70;;;;;;;;;;4875998;29;20053;-66
2022/02/10 01:35:08;;;;;;;7.40;2.88;;;;;;;;;;4897356;29;20067;-66
2022/02/10 01:37:40;;;;;;;10.60;3.30;;;;;;;;;;4897368;29;20432;-66
2022/02/10 01:40:18;;;;;;;9.80;4.05;;;;;;;;;;4913559;29;20468;-66
2022/02/10 02:05:47;;;;;;;8.13;4.20;;;;;;;;;;4922850;28;20065;-66
2022/02/10 02:08:25;;;;;;;10.35;3.75;;;;;;;;;;4970154;28;20058;-66
2022/02/10 02:10:56;;;;;;;10.20;4.28;;;;;;;;;;4954640;28;20046;-66
2022/02/10 02:13:26;;;;;;;8.60;3.80;;;;;;;;;;4938909;28;20058;-66
2022/02/10 02:15:56;;;;;;;14.93;4.80;;;;;;;;;;4970524;28;20055;-66
2022/02/10 02:18:27;;;;;;;10.10;3.33;;;;;;;;;;4970143;28;20058;-66
2022/02/10 02:21:00;;;;;;;8.40;3.53;;;;;;;;;;4970214;28;20057;-66
2022/02/10 02:23:30;;;;;;;15.27;3.55;;;;;;;;;;4970000;28;20054;-66
2022/02/10 02:26:07;;;;;;;9.50;3.83;;;;;;;;;;4970223;28;20054;-66
2022/02/10 02:28:40;;;;;;;10.63;3.58;;;;;;;;;;4970088;28;20067;-66
2022/02/10 02:31:17;;;;;;;10.07;3.45;;;;;;;;;;4954118;28;20055;-66
2022/02/10 02:34:20;;;;;;;13.55;3.92;;;;;;;;;;4979147;28;20089;-66
2022/02/10 03:07:32;;;;;;;12.27;3.90;;;;;;;;;;5010967;28;20049;-66
2022/02/10 03:12:44;;;;;;;12.20;3.80;;;;;;;;;;4992175;28;20054;-66
2022/02/10 03:15:25;;;;;;;11.43;3.90;;;;;;;;;;4944683;28;20071;-66
2022/02/10 04:08:07;;;;;;;9.40;4.35;;;;;;;;;;4972547;28;20451;-66
2022/02/10 04:13:25;;;;;;;9.27;5.32;;;;;;;;;;4942936;28;20057;-66
2022/02/10 04:19:32;;;;;;;12.60;4.38;;;;;;;;;;4972520;28;20069;-66
2022/02/10 04:22:08;;;;;;;10.15;4.32;;;;;;;;;;4940343;28;20098;-66
2022/02/10 04:42:07;;;;;;;10.90;4.10;;;;;;;;;;4933677;29;20437;-67
2022/02/10 04:57:57;;;;;;;15.93;5.28;;;;;;;;;;4895284;29;20068;-67
2022/02/10 05:16:52;;;;;;;11.15;4.88;;;;;;;;;;4895035;29;20056;-67
2022/02/10 05:19:41;;;;;;;13.93;4.60;;;;;;;;;;4895043;29;20063;-66
2022/02/10 05:36:00;;;;;;;13.52;5.50;;;;;;;;;;4951892;28;20062;-67
2022/02/10 05:38:42;;;;;;;11.07;5.22;;;;;;;;;;4957786;28;20055;-67
2022/02/10 05:54:46;;;;;;;9.95;4.25;;;;;;;;;;4863244;29;20060;-67
2022/02/10 06:00:36;;;;;;;12.77;5.43;;;;;;;;;;4863359;29;20547;-67
2022/02/10 06:38:10;;;;;;;11.55;5.72;;;;;;;;;;4894733;29;20464;-66
2022/02/10 07:10:26;;;;;;;12.30;4.88;;;;;;;;;;4880891;29;20591;-66
2022/02/10 07:13:24;;;;;;;12.45;5.07;;;;;;;;;;4912235;29;20056;-66
2022/02/10 07:54:30;;;;;;;8.20;3.85;;;;;;;;;;5010923;28;20402;-67
2022/02/10 08:55:55;;;;;;;7.78;3.80;;;;;;;;;;4876877;29;20053;-66
2022/02/10 09:01:32;;;;;;;12.15;3.75;;;;;;;;;;4876576;29;20123;-66
2022/02/10 09:18:16;;;;;;;8.60;4.00;;;;;;;;;;4932951;29;20064;-66
2022/02/10 10:00:59;;;;;;;13.63;4.25;;;;;;;;;;4932175;29;20060;-66
2022/02/10 10:03:40;;;;;;;14.27;3.70;;;;;;;;;;4959464;28;20059;-67
2022/02/10 10:06:40;;;;;;;15.07;4.30;;;;;;;;;;4931845;29;20051;-66
2022/02/10 10:14:39;;;;;;;20.48;3.90;;;;;;;;;;4900285;29;20047;-66
2022/02/10 10:17:27;;;;;;;13.43;4.13;;;;;;;;;;4900418;29;20051;-66
2022/02/10 10:20:05;;;;;;;11.95;3.67;;;;;;;;;;4931703;29;20079;-66
2022/02/10 10:44:18;;;;;;;23.65;4.05;;;;;;;;;;4931957;29;20667;-66
2022/02/10 10:54:07;;;;;;;8.85;3.25;;;;;;;;;;4969815;28;20063;-67
2022/02/10 10:56:30;;;;;;;10.55;3.30;;;;;;;;;;4912396;29;20071;-66
2022/02/10 10:59:18;;;;;;;8.48;2.67;;;;;;;;;;4912429;29;20409;-66
2022/02/10 11:36:19;;;;;;;5.03;2.67;;;;;;;;;;4918692;29;20055;-67
2022/02/10 11:37:03;;;;;;;6.18;2.38;;;;;;;;;;4953920;29;20079;-67
2022/02/10 14:14:19;;;;;;;4.47;1.50;;;;;;;;;;4956649;28;20051;-67
2022/02/10 14:17:04;;;;;;;2.03;1.25;;;;;;;;;;5011768;28;20048;-67
2022/02/10 14:19:41;;;;;;;4.85;1.50;;;;;;;;;;5011684;28;20045;-66
2022/02/10 14:22:36;;;;;;;3.95;1.40;;;;;;;;;;5011654;28;20045;-64
2022/02/10 14:28:12;;;;;;;3.25;1.30;;;;;;;;;;5011601;28;20049;-65
2022/02/10 14:30:43;;;;;;;4.18;1.50;;;;;;;;;;4976733;28;20065;-64
2022/02/10 14:33:21;;;;;;;3.58;2.42;;;;;;;;;;4977945;28;20056;-65
2022/02/10 14:35:58;;;;;;;4.05;1.60;;;;;;;;;;5010359;28;20050;-64
2022/02/10 14:38:47;;;;;;;5.45;1.55;;;;;;;;;;4960622;28;20061;-62
2022/02/10 16:16:39;;;;;;;6.82;1.27;;;;;;;;;;4953272;29;20059;-67
2022/02/10 16:18:45;;;;;;;3.85;1.70;;;;;;;;;;4952174;28;20058;-67
2022/02/10 16:21:30;;;;;;;3.75;1.67;;;;;;;;;;4905702;29;20051;-65
2022/02/10 16:24:05;;;;;;;2.85;1.25;;;;;;;;;;4933587;29;20078;-65
2022/02/10 16:26:42;;;;;;;3.72;1.55;;;;;;;;;;4917815;29;20052;-66
2022/02/10 16:29:17;;;;;;;1.77;1.13;;;;;;;;;;4933753;29;20063;-67
2022/02/10 16:31:50;;;;;;;3.42;1.52;;;;;;;;;;4918369;29;20059;-67
2022/02/10 16:34:21;;;;;;;4.25;1.40;;;;;;;;;;4933408;29;20060;-66
2022/02/10 16:36:56;;;;;;;2.83;1.55;;;;;;;;;;4874491;29;20058;-65
2022/02/10 16:39:26;;;;;;;4.57;1.45;;;;;;;;;;4917921;29;20059;-65
2022/02/10 16:42:06;;;;;;;4.07;1.15;;;;;;;;;;4931376;28;20439;-67
2022/02/10 16:44:43;;;;;;;4.47;1.40;;;;;;;;;;4926293;28;20059;-67
2022/02/10 16:47:19;;;;;;;3.72;1.40;;;;;;;;;;4911979;28;20074;-67
2022/02/10 16:49:54;;;;;;;4.20;1.30;;;;;;;;;;4884297;29;20060;-66
2022/02/10 16:52:45;;;;;;;3.42;1.38;;;;;;;;;;4869605;29;20060;-66
2022/02/10 16:55:37;;;;;;;2.80;1.50;;;;;;;;;;4856895;29;20067;-64
2022/02/10 17:01:10;;;;;;;1.67;1.10;;;;;;;;;;4904896;29;20055;-67
2022/02/10 17:04:19;;;;;;;1.67;0.88;;;;;;;;;;4922024;29;20063;-66
2022/02/10 17:29:25;;;;;;;3.42;1.13;;;;;;;;;;4894894;29;20056;-64
2022/02/10 17:45:38;;;;;;;4.50;1.80;;;;;;;;;;4878945;29;20057;-65
2022/02/10 17:53:47;;;;;;;4.00;1.00;;;;;;;;;;4916439;29;20048;-65
2022/02/10 17:56:17;;;;;;;1.73;1.00;;;;;;;;;;4943064;28;20062;-65
2022/02/10 17:58:49;;;;;;;2.13;1.30;;;;;;;;;;4958268;28;20517;-63
2022/02/10 18:01:20;;;;;;;2.70;1.05;;;;;;;;;;4958331;28;20439;-65
2022/02/10 18:03:50;;;;;;;1.95;1.25;;;;;;;;;;4926514;28;20058;-67
2022/02/10 18:06:32;;;;;;;2.58;1.20;;;;;;;;;;4992283;28;20046;-65
2022/02/10 18:14:46;;;;;;;3.38;1.10;;;;;;;;;;4992244;28;20049;-65
2022/02/10 18:17:44;;;;;;;2.30;1.08;;;;;;;;;;4970146;28;20078;-63
2022/02/10 18:20:24;;;;;;;2.75;1.00;;;;;;;;;;4970363;28;20058;-65
2022/02/10 18:23:05;;;;;;;2.20;1.10;;;;;;;;;;4955786;28;20058;-65
2022/02/10 18:28:48;;;;;;;5.97;1.48;;;;;;;;;;4970548;28;20539;-65
2022/02/10 18:34:32;;;;;;;2.42;1.10;;;;;;;;;;4973109;28;20066;-65
2022/02/10 19:02:22;;;;;;;2.67;1.65;;;;;;;;;;5011208;28;20052;-64
2022/02/10 19:10:17;;;;;;;2.83;1.13;;;;;;;;;;5011010;28;20046;-65
2022/02/10 19:12:56;;;;;;;2.00;1.00;;;;;;;;;;5011271;28;20049;-64
2022/02/10 19:15:34;;;;;;;3.10;1.10;;;;;;;;;;4976487;28;20056;-65
2022/02/10 19:18:07;;;;;;;11.85;1.48;;;;;;;;;;5010980;28;20045;-63
2022/02/10 19:20:39;;;;;;;4.05;2.22;;;;;;;;;;5010981;28;20038;-64
2022/02/10 19:23:10;;;;;;;3.97;1.85;;;;;;;;;;5009831;28;20498;-65
2022/02/10 19:25:40;;;;;;;3.75;2.22;;;;;;;;;;5010819;28;20057;-65
2022/02/10 19:28:11;;;;;;;4.55;1.70;;;;;;;;;;4960393;28;20118;-65
2022/02/10 19:30:43;;;;;;;4.43;1.48;;;;;;;;;;4960261;28;20426;-64
2022/02/10 19:33:15;;;;;;;3.45;1.42;;;;;;;;;;5010918;28;20401;-64
2022/02/10 19:35:48;;;;;;;2.60;1.20;;;;;;;;;;4976129;28;20061;-65
2022/02/10 19:38:22;;;;;;;3.17;1.20;;;;;;;;;;4976297;28;20061;-63
2022/02/10 19:40:54;;;;;;;2.03;1.20;;;;;;;;;;4976125;28;20049;-65
2022/02/10 19:43:26;;;;;;;2.17;1.17;;;;;;;;;;5010717;28;20046;-64
2022/02/10 19:45:57;;;;;;;2.80;1.20;;;;;;;;;;4988333;28;20503;-63
2022/02/10 19:48:27;;;;;;;2.30;1.33;;;;;;;;;;4988674;28;20065;-64
2022/02/10 19:50:58;;;;;;;1.38;0.93;;;;;;;;;;4988668;28;20063;-65
2022/02/10 19:53:28;;;;;;;3.22;1.20;;;;;;;;;;4989830;28;20403;-65
2022/02/10 19:55:59;;;;;;;2.67;1.60;;;;;;;;;;4961207;28;20058;-65
2022/02/10 19:58:30;;;;;;;3.00;1.10;;;;;;;;;;4992456;28;20063;-65
2022/02/10 20:01:02;;;;;;;2.15;1.20;;;;;;;;;;4972903;28;20059;-66
2022/02/10 20:03:37;;;;;;;3.63;1.20;;;;;;;;;;4969014;28;20384;-65
2022/02/10 20:06:07;;;;;;;1.90;1.33;;;;;;;;;;4968991;28;20070;-65
2022/02/10 20:08:37;;;;;;;2.45;1.20;;;;;;;;;;4952906;29;20170;-65
2022/02/10 20:11:08;;;;;;;3.35;1.20;;;;;;;;;;4953548;29;20059;-65
2022/02/10 20:13:39;;;;;;;2.50;1.13;;;;;;;;;;4953350;29;20058;-65
2022/02/10 20:16:11;;;;;;;3.08;1.30;;;;;;;;;;4953272;29;20066;-65
2022/02/10 20:18:46;;;;;;;3.17;1.20;;;;;;;;;;4921677;29;20531;-66
2022/02/10 20:21:16;;;;;;;2.83;1.10;;;;;;;;;;4953094;29;20095;-65
2022/02/10 20:23:47;;;;;;;2.40;1.30;;;;;;;;;;4953437;29;20086;-65
2022/02/10 20:26:17;;;;;;;2.05;0.90;;;;;;;;;;4953013;29;20051;-65
2022/02/10 20:28:47;;;;;;;1.70;1.17;;;;;;;;;;4952919;29;20059;-65
2022/02/10 20:31:18;;;;;;;4.85;1.20;;;;;;;;;;4953082;29;20579;-65
2022/02/10 20:33:48;;;;;;;2.80;1.20;;;;;;;;;;4952596;29;20423;-65
2022/02/10 20:36:19;;;;;;;2.35;1.30;;;;;;;;;;4952713;29;20527;-65
2022/02/10 20:38:55;;;;;;;3.88;1.25;;;;;;;;;;4936684;29;20593;-65
2022/02/10 20:41:30;;;;;;;4.18;1.35;;;;;;;;;;4953022;29;20070;-65
2022/02/10 20:44:01;;;;;;;5.30;1.20;;;;;;;;;;4952637;29;20099;-65
2022/02/10 20:46:38;;;;;;;3.85;1.58;;;;;;;;;;4917831;28;20445;-66
2022/02/10 20:49:16;;;;;;;5.65;1.77;;;;;;;;;;4925452;28;20066;-65
2022/02/10 20:51:51;;;;;;;4.78;1.73;;;;;;;;;;4971861;28;20051;-65
2022/02/10 20:54:23;;;;;;;2.92;1.70;;;;;;;;;;4971811;28;20077;-65
2022/02/10 20:56:54;;;;;;;4.93;1.50;;;;;;;;;;4972024;28;20059;-65
2022/02/10 20:59:34;;;;;;;3.72;1.73;;;;;;;;;;4971763;28;20066;-65
2022/02/10 21:02:15;;;;;;;5.40;1.55;;;;;;;;;;4957414;28;20070;-65
2022/02/10 21:04:55;;;;;;;4.68;1.80;;;;;;;;;;4971520;28;20050;-65
2022/02/10 21:07:37;;;;;;;8.05;1.80;;;;;;;;;;4932910;29;20064;-65
2022/02/10 21:10:12;;;;;;;3.20;1.83;;;;;;;;;;4932983;29;20066;-66
2022/02/10 21:12:45;;;;;;;6.72;1.73;;;;;;;;;;4917232;29;20056;-65
2022/02/10 21:15:23;;;;;;;6.47;1.63;;;;;;;;;;4920997;29;20062;-65
2022/02/10 21:17:58;;;;;;;;;;;;;;;;;;4936666;29;20055;-65
2022/02/10 21:20:31;;;;;;;5.35;1.60;;;;;;;;;;4952278;28;19922;-65
2022/02/10 21:25:48;;;;;;;3.00;1.58;;;;;;;;;;4971219;28;20059;-65
2022/02/10 21:28:26;;;;;;;5.95;1.98;;;;;;;;;;4923667;28;20396;-65
2022/02/10 21:31:00;;;;;;;4.30;1.75;;;;;;;;;;4971220;28;20418;-65
2022/02/10 21:39:01;;;;;;;3.95;1.90;;;;;;;;;;4964151;28;20062;-65
2022/02/10 21:47:38;;;;;;;5.32;1.77;;;;;;;;;;5012283;28;20393;-66
2022/02/10 22:03:06;;;;;;;7.90;2.03;;;;;;;;;;4913176;29;20088;-66
2022/02/10 22:10:47;;;;;;;4.20;1.63;;;;;;;;;;4913230;29;20531;-65
2022/02/10 22:16:44;;;;;;;6.90;2.67;;;;;;;;;;4859899;29;20071;-65
2022/02/10 22:21:56;;;;;;;7.90;2.60;;;;;;;;;;4875329;29;20057;-65
2022/02/10 22:24:27;;;;;;;7.88;3.53;;;;;;;;;;4868284;29;20061;-65
2022/02/10 22:26:57;;;;;;;9.50;2.88;;;;;;;;;;4875057;29;20513;-66
2022/02/10 22:29:35;;;;;;;7.35;2.50;;;;;;;;;;4875213;29;20064;-65
2022/02/10 22:32:39;;;;;;;7.07;2.80;;;;;;;;;;4874983;29;20053;-65
2022/02/10 22:35:11;;;;;;;5.53;2.30;;;;;;;;;;4899534;29;20060;-65
2022/02/10 22:37:41;;;;;;;;;;;;;;;;;;4903622;29;20063;-65
2022/02/10 22:40:37;;;;;;;5.78;2.45;;;;;;;;;;4893782;29;19924;-65
2022/02/10 22:43:03;;;;;;;8.82;2.65;;;;;;;;;;4878373;29;20056;-65
2022/02/10 22:45:34;;;;;;;4.55;2.47;;;;;;;;;;4893466;29;20052;-65
2022/02/10 22:48:04;;;;;;;5.57;2.60;;;;;;;;;;4878337;29;20063;-65
2022/02/10 22:50:35;;;;;;;8.23;2.35;;;;;;;;;;4893799;29;20064;-65
2022/02/10 22:53:06;;;;;;;11.38;2.63;;;;;;;;;;4904850;29;20067;-65
2022/02/10 22:55:41;;;;;;;13.10;3.75;;;;;;;;;;4912451;29;20064;-65
2022/02/10 22:58:11;;;;;;;10.20;3.22;;;;;;;;;;4881822;29;20056;-65
2022/02/10 23:00:47;;;;;;;9.02;3.38;;;;;;;;;;4866775;29;20056;-66
2022/02/10 23:03:24;;;;;;;12.20;2.90;;;;;;;;;;4901888;29;20052;-65
2022/02/10 23:05:56;;;;;;;8.00;3.17;;;;;;;;;;4931275;29;20416;-65
2022/02/10 23:08:26;;;;;;;12.98;3.22;;;;;;;;;;4931236;29;20062;-65
2022/02/10 23:10:57;;;;;;;10.65;3.22;;;;;;;;;;4936666;28;20043;-66
2022/02/10 23:13:31;;;;;;;13.68;3.25;;;;;;;;;;4969839;28;20069;-66
2022/02/10 23:16:05;;;;;;;12.25;4.00;;;;;;;;;;4985250;28;20058;-66
2022/02/10 23:18:36;;;;;;;13.98;4.15;;;;;;;;;;4956498;28;20640;-66
2022/02/10 23:21:12;;;;;;;11.35;3.80;;;;;;;;;;4989234;28;20050;-65
2022/02/10 23:23:45;;;;;;;16.02;4.20;;;;;;;;;;4941025;28;20078;-66
2022/02/10 23:26:19;;;;;;;14.35;3.88;;;;;;;;;;4940996;28;20537;-65
2022/02/10 23:28:52;;;;;;;11.50;3.85;;;;;;;;;;4990763;28;20070;-65
2022/02/10 23:31:25;;;;;;;12.90;3.92;;;;;;;;;;4992989;28;20453;-66
2022/02/10 23:34:00;;;;;;;13.57;4.13;;;;;;;;;;4944321;28;20062;-66
2022/02/10 23:36:48;;;;;;;13.75;3.28;;;;;;;;;;4992904;28;20066;-66
2022/02/10 23:39:37;;;;;;;7.15;3.42;;;;;;;;;;4976703;28;20050;-65
2022/02/10 23:44:43;;;;;;;8.90;3.13;;;;;;;;;;4992602;28;20426;-65
2022/02/10 23:47:24;;;;;;;10.35;3.00;;;;;;;;;;4972711;28;20062;-66
2022/02/10 23:49:55;;;;;;;9.25;2.95;;;;;;;;;;4992431;28;20073;-66
2022/02/10 23:52:26;;;;;;;13.27;3.28;;;;;;;;;;4992542;28;20058;-65
2022/02/10 23:55:05;;;;;;;7.65;2.95;;;;;;;;;;4940528;28;20054;-66
2022/02/10 23:58:01;;;;;;;10.23;3.15;;;;;;;;;;4953216;28;20059;-66
